Tiempo atmosférico en la estación meteorológica de Santibañez De Vidriales, Zamora (737 m.)



Fecha
DESCASC
Temp. máxima en grados centígrados (hora)
DESCASC
Temp. mínima en grados centígrados (hora)
DESCASC
Temp. media en grados centígrados
DESCASC
Racha de viento máxima en m/sg (hora)
DESCASC
Velocidad máxima media en intervalos de 10 minutos(hora)
DESCASC
Precipitaciones diarias en mm
DESCASC
Precipitaciones de 00:00 a 06:00 en mm
DESCASC
Precipitaciones de 06:00 a 12:00 en mm
DESCASC
Precipitaciones de 12:00 a 18:00 en mm
DESCASC
Precipitaciones de 18:00 a 24:00 en mm
DESCASC
05-04-2020 13.9 (15:50) 8.9 (08:40) 11.4 11.11 (16:20) 7.78 (16:40) 10.4 0 0.2 2 8.2
04-04-2020 17.6 (17:50) 0.8 (05:20) 9.2 8.06 (17:40) 5.28 (17:50) 0 0 0 0 0
03-04-2020 14.2 (18:40) -0.3 (07:40) 6.9 5.83 (18:50) 3.61 (18:50) 0 0 0 0 0
02-04-2020 14.2 (18:00) 6.2 (00:00) 10.2 11.39 (14:30) 7.22 (14:30) 4.8 3.2 1 0.4 0.2
01-04-2020 11.8 (15:10) 5.3 (00:00) 8.6 7.78 (16:00) 5 (16:30) 7.8 1.8 0 3.8 2.2
31-03-2020 7.6 (16:10) 0.2 (00:00) 3.9 11.39 (16:20) 7.78 (16:10) 0.4 0 0 0 0.4
30-03-2020 7.2 (15:40) 1.4 (00:00) 4.3 10.56 (17:30) 6.67 (20:50) 0.6 0.2 0.4 0 0
29-03-2020 17 (18:30) -1 (-00:0) 8 12.78 (21:10) 8.61 (21:10) 0 0 0 0 0
28-03-2020 16.1 (17:10) -1.4 (-00:0) 7.4 4.72 (13:40) 3.33 (10:30) 0 0 0 0 0
27-03-2020 12 (17:50) -3 (-00:0) 4.5 10.56 (17:00) 7.22 (13:20) 0 0 0 0 0
26-03-2020 17.1 (16:40) -3.6 (-00:0) 6.8 9.44 (21:10) 5.83 (21:10) 0 0 0 0 0
25-03-2020 19.5 (15:00) 0.5 (00:00) 10 8.06 (14:30) 5.28 (20:50) 0 0 0 0 0
24-03-2020 -- (--) -- (--) -- -- (--) -- (--) -- -- 0 0 0
23-03-2020 -- (--) -- (--) -- -- (--) -- (--) -- -- -- 0 --
22-03-2020 -- (--) -- (--) -- -- (--) -- (--) -- -- -- 0 --
21-03-2020 -- (--) -- (--) -- -- (--) -- (--) -- -- -- 0 --
20-03-2020 -- (--) -- (--) -- -- (--) -- (--) -- 0 -- -- --
19-03-2020 -- (--) -- (--) -- -- (--) -- (--) -- 0 0 0 --
18-03-2020 17.7 (16:40) 7.1 (00:00) 12.4 5.28 (12:00) 3.33 (11:50) 0 0 0 0 0
17-03-2020 14.4 (13:00) 6.1 (00:00) 10.2 13.89 (10:20) 8.89 (10:20) 0 0 0 0 0
16-03-2020 10.3 (17:00) 2.2 (00:00) 6.3 17.22 (14:30) 11.11 (14:40) 0.2 0 0.2 0 0
15-03-2020 -- (--) -- (--) -- -- (--) -- (--) -- 0 -- 0 2.2
14-03-2020 17.4 (16:50) -1.9 (-00:0) 7.7 5.28 (17:50) 3.33 (17:10) 0 0 0 0 0
13-03-2020 16.3 (18:10) 3.9 (23:59) 10.1 8.06 (12:30) 3.89 (10:20) 0 0 0 0 0
12-03-2020 -- (--) -- (--) -- -- (--) -- (--) -- 0 0 0 --
11-03-2020 23.5 (16:30) 0.4 (00:00) 12 -- (--) -- (--) -- 0 0 0 --
10-03-2020 22.1 (16:10) 1.9 (00:00) 12 8.89 (16:20) 6.67 (16:20) 0 0 0 0 0
09-03-2020 -- (--) -- (--) -- -- (--) -- (--) -- 0 0 0 --

Gráficas

Temp. máximas Temp. mínimas Temp. medias Precipitaciones Rachas de viento máximas Velocidades máximas media en intervalos de 10 minutos

Datos horarios

Fecha y hora oficial Temperatura (ºC) Velocidad del viento (km/h) Dirección del viento Racha (km/h) Dirección de racha Precipitación (mm) Presión (hPa) Tendencia (hPa) Humedad (%)
2020-04-07 23:00:00 10.1 3 Norte 7 Noroeste 0 -- -- 90
2020-04-07 22:00:00 11.7 0 Calma 15 Sudeste 0 -- -- 86
2020-04-07 21:00:00 13.4 11 Sudeste 20 Este 0 -- -- 81
2020-04-07 20:00:00 16.7 6 Este 13 Sur 0 -- -- 65
2020-04-07 19:00:00 17.1 11 Sur 21 Sur 0 -- -- 66
2020-04-07 18:00:00 17.3 9 Este 17 Sudeste 0 -- -- 70
2020-04-07 17:00:00 17.9 4 Sudoeste 14 Noroeste 0 -- -- 66
2020-04-07 16:00:00 16.1 5 Noroeste 10 Noroeste 0 -- -- 75
2020-04-07 15:00:00 15.1 5 Noroeste 14 Sudeste 0 -- -- 79
2020-04-07 14:00:00 14.1 6 Sudeste 15 Sudeste 0 -- -- 80
2020-04-07 13:00:00 13.6 5 Sudeste 12 Este 0 -- -- 85
2020-04-07 12:00:00 12.2 5 Este 10 Este 0.2 -- -- 92
2020-04-07 11:00:00 11.2 5 Sudeste 12 Sudeste 0.4 -- -- 95
2020-04-07 10:00:00 10.7 8 Este 12 Este 0.2 -- -- 97
2020-04-07 09:00:00 10.2 6 Este 10 Este 0 -- -- 97
2020-04-07 08:00:00 10 3 Nordeste 7 Nordeste 0 -- -- 97
2020-04-07 07:00:00 10 0 Calma 6 Este 0.2 -- -- 97
2020-04-07 06:00:00 10 4 Este 6 Este 0 -- -- 97
2020-04-07 05:00:00 9.9 3 Este 5 Sudeste 0.2 -- -- 96
2020-04-07 04:00:00 9.7 3 Este 6 Este 0.2 -- -- 96
2020-04-07 03:00:00 9.5 3 Este 7 Este 0 -- -- 96
2020-04-07 02:00:00 9.5 0 Calma 3 Este 0.2 -- -- 95
2020-04-07 01:00:00 9.4 2 Noroeste 4 Noroeste 0.4 -- -- 95
2020-04-07 00:00:00 9.4 2 Sudoeste 3 Sudoeste 0 -- -- 92
2020-04-06 23:00:00 9.2 0 Calma 5 Sudeste 0 -- -- 92
2020-04-06 22:00:00 9.7 4 Sur 8 Sudoeste 0 -- -- 91
2020-04-06 21:00:00 10.2 5 Sudoeste 9 Sudoeste 0.2 -- -- 88
2020-04-06 20:00:00 10.8 5 Oeste 19 Sudoeste 0 -- -- 85
2020-04-06 19:00:00 11.3 15 Sudoeste 27 Sudoeste 0 -- -- 81
2020-04-06 18:00:00 11.9 18 Sudoeste 29 Sudoeste 0 -- -- 75
2020-04-06 17:00:00 12.6 17 Sudoeste 27 Sudoeste 0 -- -- 74
2020-04-06 16:00:00 13.2 13 Sur 26 Sudoeste 0 -- -- 76
2020-04-06 15:00:00 14.2 14 Oeste 21 Oeste 0 -- -- 65
2020-04-06 14:00:00 14.3 12 Sudoeste 22 Sudoeste 0 -- -- 70
2020-04-06 13:00:00 14.1 13 Sudoeste 24 Sudoeste 0 -- -- 72
2020-04-06 12:00:00 13.1 16 Sudoeste 27 Sudoeste 0 -- -- 82
2020-04-06 11:00:00 11.2 13 Sudoeste 21 Sudoeste 0 -- -- 88
2020-04-06 10:00:00 10.7 14 Sudoeste 22 Sudoeste 0 -- -- 93
2020-04-06 09:00:00 10.5 8 Sudoeste 12 Sudoeste 0 -- -- 96
2020-04-06 08:00:00 10.3 8 Sudoeste 14 Sudoeste 0.2 -- -- 97
2020-04-06 07:00:00 10.5 5 Sudoeste 9 Sudoeste 0.2 -- -- 97
2020-04-06 06:00:00 10.5 3 Nordeste 5 Noroeste 0.8 -- -- 97
2020-04-06 05:00:00 10.5 3 Norte 8 Este 1 -- -- 97
2020-04-06 04:00:00 10.6 6 Sudeste 10 Sudeste 1.8 -- -- 97
2020-04-06 03:00:00 10.6 3 Sudeste 8 Sudeste 0.2 -- -- 96
2020-04-06 02:00:00 10.2 4 Sudeste 6 Este 0 -- -- 96
2020-04-06 01:00:00 9.7 2 Este 5 Sudeste 0 -- -- 95
2020-04-06 00:00:00 9.9 4 Sudeste 7 Este 0.2 -- -- 95
2020-04-05 23:00:00 10.1 5 Sudeste 8 Sudeste 0 -- -- 94
2020-04-05 22:00:00 10.4 5 Sudeste 9 Sudeste 0 -- -- 94
2020-04-05 21:00:00 10.7 4 Sudeste 10 Sur 1.8 -- -- 94
2020-04-05 20:00:00 11 9 Sur 17 Sudoeste 2.8 -- -- 93
2020-04-05 19:00:00 11.3 13 Sur 21 Sur 3.4 -- -- 93
2020-04-05 18:00:00 11.7 14 Sur 26 Sur 1.4 -- -- 91
2020-04-05 17:00:00 12.3 13 Sur 40 Sur 0.4 -- -- 87
2020-04-05 16:00:00 13.8 25 Sur 38 Sur 0 -- -- 74
2020-04-05 15:00:00 12.3 15 Sur 27 Sur 0 -- -- 83
2020-04-05 14:00:00 12 23 Sur 32 Sur 0.2 -- -- 82
2020-04-05 13:00:00 12.6 21 Sur 36 Sudoeste 0 -- -- 72
2020-04-05 12:00:00 12.6 19 Sur 33 Sur 0 -- -- 72
2020-04-05 11:00:00 11.6 21 Sur 33 Sur 0 -- -- 78
2020-04-05 10:00:00 9.3 8 Sudeste 14 Sudeste 0 -- -- 86
2020-04-05 09:00:00 8.9 6 Sudeste 13 Sudeste 0.2 -- -- 87
2020-04-05 08:00:00 9.3 5 Sudeste 9 Sudeste 0 -- -- 81
2020-04-05 07:00:00 10 5 Sudeste 16 Sur 0 -- -- 76
2020-04-05 06:00:00 10.5 8 Sur 22 Sur 0 -- -- 70
2020-04-05 05:00:00 11.2 16 Sur 30 Sudoeste 0 -- -- 66
2020-04-05 04:00:00 11.4 14 Sur 19 Sur 0 -- -- 63
2020-04-05 03:00:00 11.4 9 Sudoeste 16 Sudoeste 0 -- -- 64
2020-04-05 02:00:00 11.8 9 Sudoeste 24 Sur 0 -- -- 61
2020-04-05 01:00:00 11.1 4 Sur 14 Sudoeste 0 -- -- 62
2020-04-05 00:00:00 11.7 11 Sudoeste 19 Sur 0 -- -- 57
2020-04-04 23:00:00 12.2 12 Sudoeste 22 Sur 0 -- -- 53
2020-04-04 22:00:00 12.9 14 Sudoeste 23 Sur 0 -- -- 53
2020-04-04 21:00:00 14 15 Sur 25 Sudoeste 0 -- -- 50
2020-04-04 20:00:00 15.5 8 Sur 16 Sur 0 -- -- 50
2020-04-04 19:00:00 16.4 10 Sur 29 Sur 0 -- -- 45
2020-04-04 18:00:00 17.3 19 Sur 29 Sur 0 -- -- 43
2020-04-04 17:00:00 16.3 16 Sur 26 Sur 0 -- -- 43
2020-04-04 16:00:00 16.2 10 Sudeste 22 Sudeste 0 -- -- 41
2020-04-04 15:00:00 15.8 12 Sudeste 24 Sudeste 0 -- -- 49
2020-04-04 14:00:00 14.8 13 Sudeste 23 Sudeste 0 -- -- 50
2020-04-04 13:00:00 12.2 12 Este 20 Este 0 -- -- 59
2020-04-04 12:00:00 11 3 Nordeste 10 Norte 0 -- -- 65
2020-04-04 11:00:00 8.2 4 Norte 12 Nordeste 0 -- -- 73
2020-04-04 10:00:00 6 9 Norte 13 Norte 0 -- -- 83
2020-04-04 09:00:00 3.5 0 Calma 9 Norte 0 -- -- 91
2020-04-04 08:00:00 1.6 3 Norte 6 Norte 0 -- -- 93
2020-04-04 07:00:00 1.8 2 Norte 5 Noroeste 0 -- -- 92
2020-04-04 06:00:00 1.2 0 Calma 5 Noroeste 0 -- -- 94
2020-04-04 05:00:00 1.2 4 Noroeste 8 Noroeste 0 -- -- 92
2020-04-04 04:00:00 1.3 0 Calma 3 Oeste 0 -- -- 92
2020-04-04 03:00:00 1.7 3 Noroeste 9 Noroeste 0 -- -- 91
2020-04-04 02:00:00 2.5 3 Oeste 5 Noroeste 0 -- -- 91
2020-04-04 01:00:00 3.1 4 Noroeste 7 Noroeste 0 -- -- 90
2020-04-04 00:00:00 4.4 5 Noroeste 6 Noroeste 0 -- -- 86
2020-04-03 23:00:00 6.7 0 Calma 4 Noroeste 0 -- -- 81
2020-04-03 22:00:00 7.8 4 Sudeste 13 Sudeste 0 -- -- 77
2020-04-03 21:00:00 10.3 8 Sudeste 15 Este 0 -- -- 69
2020-04-03 20:00:00 13.2 12 Este 19 Este 0 -- -- 54
2020-04-03 19:00:00 14.1 12 Este 21 Este 0 -- -- 52
2020-04-03 18:00:00 14 9 Este 18 Este 0 -- -- 54
2020-04-03 17:00:00 13.5 9 Este 19 Este 0 -- -- 59
2020-04-03 16:00:00 12.9 12 Este 19 Sudeste 0 -- -- 62
2020-04-03 15:00:00 11.8 10 Este 19 Sudeste 0 -- -- 62
2020-04-03 14:00:00 10.5 6 Sudeste 17 Este 0 -- -- 64
2020-04-03 13:00:00 8.9 4 Este 15 Sudeste 0 -- -- 65
2020-04-03 12:00:00 7.8 8 Este 14 Este 0 -- -- 69
2020-04-03 11:00:00 6.6 4 Sudeste 10 Este 0 -- -- 74
2020-04-03 10:00:00 4.2 0 Calma 4 Noroeste 0 -- -- 89
2020-04-03 09:00:00 0.4 3 Noroeste 5 Noroeste 0 -- -- 95
2020-04-03 08:00:00 0 0 Calma 4 Noroeste 0 -- -- 94
2020-04-03 07:00:00 0.5 3 Noroeste 5 Noroeste 0 -- -- 93
2020-04-03 06:00:00 2.1 2 Noroeste 3 Noroeste 0 -- -- 89
2020-04-03 05:00:00 2.9 3 Este 8 Sudeste 0 -- -- 87
2020-04-03 04:00:00 3.2 2 Norte 6 Este 0 -- -- 91
2020-04-03 03:00:00 4.3 2 Sur 9 Este 0 -- -- 87
2020-04-03 02:00:00 5.6 8 Sudeste 16 Este 0 -- -- 82
2020-04-03 01:00:00 7.8 4 Sudeste 12 Nordeste 0 -- -- 77
2020-04-03 00:00:00 8 6 Norte 14 Norte 0 -- -- 75
2020-04-02 23:00:00 8.2 8 Norte 12 Nordeste 0 -- -- 77
2020-04-02 22:00:00 7.9 4 Norte 8 Nordeste 0 -- -- 88
2020-04-02 21:00:00 9.5 4 Sur 15 Sudeste 0 -- -- 79
2020-04-02 20:00:00 11.9 10 Sudeste 24 Este 0 -- -- 73
2020-04-02 19:00:00 13.3 15 Sudeste 25 Nordeste 0.2 -- -- 64
2020-04-02 18:00:00 14.2 6 Sudeste 16 Este 0 -- -- 59
2020-04-02 17:00:00 11.8 3 Sudeste 33 Este 0 -- -- 66
2020-04-02 16:00:00 13.1 6 Sudeste 12 Sudeste 0 -- -- 66
2020-04-02 15:00:00 10.1 5 Este 41 Nordeste 0.4 -- -- 78
2020-04-02 14:00:00 12.4 16 Nordeste 35 Nordeste 0 -- -- 66
2020-04-02 13:00:00 12.5 15 Nordeste 27 Este 0 -- -- 67
2020-04-02 12:00:00 10.6 10 Nordeste 18 Nordeste 0 -- -- 76
2020-04-02 11:00:00 9 5 Norte 14 Norte 0 -- -- 85
2020-04-02 10:00:00 7.2 8 Norte 15 Norte 0 -- -- 91
2020-04-02 09:00:00 6.5 8 Norte 14 Norte 0 -- -- 93
2020-04-02 08:00:00 6.3 5 Norte 13 Norte 0.4 -- -- 95
2020-04-02 07:00:00 6.2 8 Norte 13 Norte 0.6 -- -- 95
2020-04-02 06:00:00 6.2 6 Norte 16 Norte 0.8 -- -- 94
2020-04-02 05:00:00 6.2 10 Norte 18 Norte 0.8 -- -- 93
2020-04-02 04:00:00 6.2 3 Norte 8 Noroeste 0.2 -- -- 93
2020-04-02 03:00:00 6.5 3 Norte 9 Nordeste 0.4 -- -- 94
2020-04-02 02:00:00 6.8 7 Nordeste 10 Nordeste 0.2 -- -- 93
2020-04-02 01:00:00 6.9 3 Norte 10 Norte 0.8 -- -- 93
2020-04-02 00:00:00 6.9 5 Nordeste 12 Norte 0.2 -- -- 92
2020-04-01 23:00:00 6.8 7 Nordeste 12 Nordeste 0 -- -- 92
2020-04-01 22:00:00 6.8 4 Sudeste 6 Sudeste 0 -- -- 90
2020-04-01 21:00:00 7.3 3 Oeste 12 Noroeste 0 -- -- 90
2020-04-01 20:00:00 7.6 8 Norte 13 Norte 0.4 -- -- 88
2020-04-01 19:00:00 7 5 Noroeste 22 Oeste 1.6 -- -- 90
2020-04-01 18:00:00 7 16 Oeste 25 Oeste 0 -- -- 87
2020-04-01 17:00:00 7.4 12 Noroeste 27 Oeste 3.8 -- -- 91
2020-04-01 16:00:00 9.2 17 Sudoeste 28 Oeste 0 -- -- 79
2020-04-01 15:00:00 11.5 15 Este 25 Este 0 -- -- 67
2020-04-01 14:00:00 10.3 14 Nordeste 27 Nordeste 0 -- -- 73
2020-04-01 13:00:00 9.8 11 Nordeste 18 Nordeste 0 -- -- 74
2020-04-01 12:00:00 8.8 9 Nordeste 15 Nordeste 0 -- -- 81
2020-04-01 11:00:00 8 5 Nordeste 10 Nordeste 0 -- -- 84
2020-04-01 10:00:00 6 3 Nordeste 6 Nordeste 0 -- -- 93
2020-04-01 09:00:00 5.6 0 Calma 4 Sudeste 0 -- -- 94
2020-04-01 08:00:00 5.3 3 Este 5 Este 0 -- -- 94
2020-04-01 07:00:00 5.5 3 Nordeste 6 Este 0 -- -- 94
2020-04-01 06:00:00 5.5 0 Calma 7 Sudeste 0 -- -- 95
2020-04-01 05:00:00 5.4 6 Sudeste 18 Este 0.2 -- -- 95
2020-04-01 04:00:00 5.5 10 Sudeste 19 Sudeste 0.2 -- -- 94
2020-04-01 03:00:00 5.5 12 Este 19 Este 0.2 -- -- 93
2020-04-01 02:00:00 5.6 16 Este 27 Este 0.4 -- -- 92
2020-04-01 01:00:00 5.7 10 Este 21 Este 0.8 -- -- 91
2020-04-01 00:00:00 6 12 Este 27 Este 0.2 -- -- 89
2020-03-31 23:00:00 6.6 17 Este 26 Este 0 -- -- 84
2020-03-31 22:00:00 7 16 Este 23 Este 0 -- -- 83
2020-03-31 21:00:00 7.2 13 Este 27 Nordeste 0 -- -- 80
2020-03-31 20:00:00 7.1 18 Este 29 Este 0 -- -- 80
2020-03-31 19:00:00 6.7 17 Este 31 Este 0.2 -- -- 81
2020-03-31 18:00:00 6.7 20 Este 36 Este 0 -- -- 75
2020-03-31 17:00:00 7.1 24 Este 41 Este 0 -- -- 72
2020-03-31 16:00:00 7.5 23 Este 37 Este 0 -- -- 69
2020-03-31 15:00:00 6 19 Este 38 Este 0 -- -- 75
2020-03-31 14:00:00 6.3 19 Este 37 Este 0 -- -- 68
2020-03-31 13:00:00 5.2 22 Este 39 Este 0 -- -- 63
2020-03-31 12:00:00 4.2 21 Este 39 Nordeste 0 -- -- 62
2020-03-31 11:00:00 3.1 25 Este 37 Este 0 -- -- 63
2020-03-31 10:00:00 1.6 21 Nordeste 36 Nordeste 0 -- -- 64
2020-03-31 09:00:00 1.1 21 Nordeste 35 Este 0 -- -- 64
2020-03-31 08:00:00 0.9 18 Nordeste 31 Nordeste 0 -- -- 65
2020-03-31 07:00:00 0.5 13 Nordeste 26 Nordeste 0 -- -- 67
2020-03-31 06:00:00 0.3 14 Nordeste 25 Nordeste 0 -- -- 71
2020-03-31 05:00:00 0.2 14 Nordeste 24 Nordeste 0 -- -- 73
2020-03-31 04:00:00 0.4 11 Nordeste 25 Nordeste 0 -- -- 72
2020-03-31 03:00:00 0.5 11 Nordeste 28 Nordeste 0 -- -- 70
2020-03-31 02:00:00 0.5 15 Este 22 Nordeste 0 -- -- 69
2020-03-31 01:00:00 0.9 12 Nordeste 24 Este 0 -- -- 65
2020-03-31 00:00:00 1.4 13 Nordeste 25 Nordeste 0 -- -- 63
2020-03-30 23:00:00 2.1 15 Nordeste 31 Nordeste 0 -- -- 53
2020-03-30 22:00:00 3.2 22 Nordeste 35 Nordeste 0 -- -- 48
2020-03-30 21:00:00 4.2 23 Nordeste 38 Nordeste 0 -- -- 44
2020-03-30 20:00:00 5.2 12 Este 30 Este 0 -- -- 48
2020-03-30 19:00:00 5.8 21 Este 33 Este 0 -- -- 47
2020-03-30 18:00:00 5.9 19 Sudeste 38 Este 0 -- -- 52
2020-03-30 17:00:00 6.3 18 Este 32 Este 0 -- -- 49
2020-03-30 16:00:00 6 14 Este 33 Este 0 -- -- 51
2020-03-30 15:00:00 6.1 14 Este 33 Este 0 -- -- 54
2020-03-30 14:00:00 5.5 14 Este 27 Nordeste 0 -- -- 58
2020-03-30 13:00:00 4.5 12 Este 28 Sudeste 0 -- -- 63
2020-03-30 12:00:00 3.8 15 Este 24 Este 0 -- -- 68
2020-03-30 11:00:00 3.3 14 Este 23 Este 0 -- -- 71
2020-03-30 10:00:00 2.5 12 Este 22 Este 0 -- -- 75
2020-03-30 09:00:00 2 7 Este 12 Este 0 -- -- 86
2020-03-30 08:00:00 1.9 8 Sudeste 17 Este 0 -- -- 88
2020-03-30 07:00:00 2.3 10 Sudeste 14 Este 0.4 -- -- 89
2020-03-30 06:00:00 2.7 11 Sudeste 25 Este 0 -- -- 86
2020-03-30 05:00:00 3.5 17 Este 24 Este 0.2 -- -- 83
2020-03-30 04:00:00 5 10 Sudeste 16 Sudeste 0 -- -- 78
2020-03-30 03:00:00 5.5 6 Este 20 Este 0 -- -- 78
2020-03-30 02:00:00 6 11 Este 20 Este 0 -- -- 76
2020-03-30 01:00:00 6.5 12 Este 17 Este 0 -- -- 76
2020-03-30 00:00:00 7 6 Este 15 Este 0 -- -- 72
2020-03-29 23:00:00 8 9 Sudeste 23 Este 0 -- -- 65
2020-03-29 22:00:00 9.9 19 Este 46 Este 0 -- -- 52
2020-03-29 21:00:00 13.3 10 Nordeste 34 Nordeste 0 -- -- 45
2020-03-29 20:00:00 15.1 4 Sudeste 12 Este 0 -- -- 40
2020-03-29 19:00:00 16.7 9 Sudeste 19 Este 0 -- -- 33
2020-03-29 18:00:00 16.9 6 Este 15 Este 0 -- -- 32
2020-03-29 17:00:00 16.6 4 Norte 12 Noroeste 0 -- -- 33
2020-03-29 16:00:00 16.5 5 Este 15 Nordeste 0 -- -- 36
2020-03-29 15:00:00 15.4 5 Este 14 Este 0 -- -- 37
2020-03-29 14:00:00 14.2 6 Sudeste 12 Sudeste 0 -- -- 45
2020-03-29 13:00:00 12.4 5 Sudeste 10 Este 0 -- -- 50
2020-03-29 12:00:00 10.6 5 Sudeste 11 Sudeste 0 -- -- 55
2020-03-29 11:00:00 7.7 0 Calma 5 Sudoeste 0 -- -- 64
2020-03-29 10:00:00 4 3 Sudoeste 5 Sudoeste 0 -- -- 82
2020-03-29 09:00:00 -0.1 0 Calma 2 Nordeste 0 -- -- 87
2020-03-29 08:00:00 -0.7 2 Sudoeste 3 Oeste 0 -- -- 86
2020-03-29 07:00:00 -0.8 0 Calma 2 Norte 0 -- -- 88
2020-03-29 06:00:00 -0.5 0 Calma 3 Sudoeste 0 -- -- 85
2020-03-29 05:00:00 0.6 0 Calma 6 Oeste 0 -- -- 81
2020-03-29 03:00:00 0.5 2 Sudeste 4 Sur 0 -- -- 84
2020-03-29 01:00:00 1.4 0 Calma 2 Nordeste 0 -- -- 78
2020-03-29 00:00:00 2.2 0 Calma 5 Noroeste 0 -- -- 76
2020-03-28 23:00:00 3 3 Norte 6 Noroeste 0 -- -- 74
2020-03-28 22:00:00 5.2 4 Noroeste 9 Noroeste 0 -- -- 66
2020-03-28 21:00:00 7.5 0 Calma 7 Sur 0 -- -- 60
2020-03-28 20:00:00 10.3 6 Sur 10 Sur 0 -- -- 47
2020-03-28 19:00:00 13.1 7 Sudeste 9 Sudeste 0 -- -- 42
2020-03-28 18:00:00 15.1 5 Sudeste 12 Sudeste 0 -- -- 31
2020-03-28 17:00:00 16 6 Sur 17 Sudeste 0 -- -- 29
2020-03-28 16:00:00 15.7 8 Sudeste 15 Sudeste 0 -- -- 26
2020-03-28 15:00:00 15 7 Sudeste 17 Este 0 -- -- 30
2020-03-28 14:00:00 14.5 8 Sudeste 17 Sur 0 -- -- 35
2020-03-28 13:00:00 13.4 5 Este 15 Este 0 -- -- 36
2020-03-28 12:00:00 12.2 3 Sudeste 12 Nordeste 0 -- -- 41
2020-03-28 11:00:00 9.7 8 Nordeste 16 Nordeste 0 -- -- 51
2020-03-28 10:00:00 7.5 10 Nordeste 15 Nordeste 0 -- -- 58
2020-03-28 09:00:00 4.4 0 Calma 3 Norte 0 -- -- 68
2020-03-28 08:00:00 -0.8 0 Calma 4 Oeste 0 -- -- 82
2020-03-28 07:00:00 -1 4 Oeste 5 Sudoeste 0 -- -- 79
2020-03-28 06:00:00 -1.4 0 Calma 4 Oeste 0 -- -- 81
2020-03-28 05:00:00 -0.3 3 Oeste 4 Oeste 0 -- -- 77
2020-03-28 04:00:00 0 4 Noroeste 9 Noroeste 0 -- -- 73
2020-03-28 03:00:00 0.9 5 Noroeste 7 Noroeste 0 -- -- 71
2020-03-28 02:00:00 1.9 3 Norte 7 Nordeste 0 -- -- 67
2020-03-28 01:00:00 0.7 7 Noroeste 10 Noroeste 0 -- -- 72
2020-03-28 00:00:00 0.9 5 Noroeste 9 Noroeste 0 -- -- 71
2020-03-27 23:00:00 1.5 6 Noroeste 8 Noroeste 0 -- -- 68
2020-03-27 22:00:00 3.1 2 Noroeste 5 Noroeste 0 -- -- 64
2020-03-27 21:00:00 5.9 2 Norte 5 Nordeste 0 -- -- 49
2020-03-27 20:00:00 8 3 Este 18 Este 0 -- -- 45
2020-03-27 19:00:00 10.8 12 Este 21 Sudeste 0 -- -- 35
2020-03-27 18:00:00 11.8 11 Este 30 Este 0 -- -- 35
2020-03-27 17:00:00 11.5 20 Este 38 Este 0 -- -- 36
2020-03-27 16:00:00 11.6 15 Sudeste 30 Este 0 -- -- 36
2020-03-27 15:00:00 10.9 19 Este 36 Este 0 -- -- 38
2020-03-27 14:00:00 9.8 19 Este 36 Nordeste 0 -- -- 40
2020-03-27 13:00:00 9.1 20 Este 34 Este 0 -- -- 46
2020-03-27 12:00:00 7.5 18 Este 33 Este 0 -- -- 50
2020-03-27 11:00:00 5.2 17 Nordeste 33 Nordeste 0 -- -- 58
2020-03-27 10:00:00 4.3 19 Este 30 Este 0 -- -- 62
2020-03-27 09:00:00 1.7 7 Norte 12 Nordeste 0 -- -- 77
2020-03-27 08:00:00 -1.5 5 Norte 9 Norte 0 -- -- 88
2020-03-27 07:00:00 -2.6 4 Norte 7 Noroeste 0 -- -- 89
2020-03-27 06:00:00 -3 4 Noroeste 7 Norte 0 -- -- 90
2020-03-27 05:00:00 -2.7 4 Noroeste 5 Noroeste 0 -- -- 89
2020-03-27 04:00:00 -1.7 3 Noroeste 5 Noroeste 0 -- -- 88
2020-03-27 03:00:00 -0.4 0 Calma 5 Noroeste 0 -- -- 86
2020-03-27 02:00:00 0.6 0 Calma 5 Este 0 -- -- 81
2020-03-27 01:00:00 2.4 3 Este 7 Este 0 -- -- 75
2020-03-27 00:00:00 2.9 4 Este 15 Este 0 -- -- 72
2020-03-26 23:00:00 4.6 9 Nordeste 18 Nordeste 0 -- -- 62
2020-03-26 22:00:00 6.5 11 Nordeste 34 Este 0 -- -- 54
2020-03-26 21:00:00 8.5 17 Nordeste 31 Nordeste 0 -- -- 41
2020-03-26 20:00:00 10.2 13 Nordeste 26 Nordeste 0 -- -- 41
2020-03-26 19:00:00 13.8 19 Nordeste 28 Nordeste 0 -- -- 28
2020-03-26 18:00:00 16.3 9 Este 19 Sudeste 0 -- -- 31
2020-03-26 17:00:00 16.8 3 Noroeste 20 Nordeste 0 -- -- 27
2020-03-26 16:00:00 16.7 4 Sur 9 Este 0 -- -- 28
2020-03-26 15:00:00 15.5 4 Oeste 10 Este 0 -- -- 33
2020-03-26 14:00:00 13.6 4 Noroeste 14 Este 0 -- -- 36
2020-03-26 13:00:00 11.7 5 Norte 11 Nordeste 0 -- -- 36
2020-03-26 12:00:00 10.1 5 Este 13 Este 0 -- -- 47
2020-03-26 11:00:00 7.6 8 Este 15 Este 0 -- -- 59
2020-03-26 10:00:00 4.4 2 Nordeste 5 Sudeste 0 -- -- 73
2020-03-26 09:00:00 1.4 0 Calma 4 Noroeste 0 -- -- 80
2020-03-26 08:00:00 -2.6 0 Calma 5 Noroeste 0 -- -- 88
2020-03-26 07:00:00 -3.4 0 Calma 7 Noroeste 0 -- -- 87
2020-03-26 06:00:00 -2.7 2 Noroeste 4 Noroeste 0 -- -- 88
2020-03-26 05:00:00 -2.2 2 Noroeste 4 Noroeste 0 -- -- 86
2020-03-26 04:00:00 -1.2 0 Calma 8 Noroeste 0 -- -- 83
2020-03-26 03:00:00 -0.2 4 Noroeste 9 Norte 0 -- -- 79
2020-03-26 02:00:00 2.3 0 Calma 6 Sudeste 0 -- -- 73
2020-03-26 01:00:00 4.6 3 Sudeste 9 Sudeste 0 -- -- 63
2020-03-26 00:00:00 5.6 5 Sudeste 10 Norte 0 -- -- 62
2020-03-25 23:00:00 8 5 Norte 17 Norte 0 -- -- 56
2020-03-25 22:00:00 9.1 14 Norte 22 Norte 0 -- -- 45
2020-03-25 21:00:00 11.1 17 Norte 27 Norte 0 -- -- 38
2020-03-25 20:00:00 11.9 11 Norte 20 Norte 0 -- -- 37
2020-03-25 19:00:00 15.4 15 Norte 22 Norte 0 -- -- 28
2020-03-25 18:00:00 16 9 Nordeste 20 Norte 0 -- -- 44
2020-03-25 17:00:00 17.5 14 Norte 28 Noroeste 0 -- -- 38
2020-03-25 16:00:00 18.8 6 Noroeste 23 Norte 0 -- -- 31
2020-03-25 15:00:00 19.5 15 Noroeste 29 Norte 0 -- -- 35
2020-03-25 14:00:00 18.4 15 Norte 28 Norte 0 -- -- 33
2020-03-25 13:00:00 17.5 14 Norte 26 Noroeste 0 -- -- 38
2020-03-25 12:00:00 15.8 5 Este 14 Este 0 -- -- 54
2020-03-25 11:00:00 13.3 4 Sudeste 9 Sudeste 0 -- -- 66
2020-03-25 10:00:00 9 4 Este 8 Este 0 -- -- 80
2020-03-25 09:00:00 4.9 0 Calma 3 Sudoeste 0 -- -- 89
2020-03-25 08:00:00 1.4 0 Calma 4 Sudoeste 0 -- -- 95
2020-03-25 07:00:00 0.7 0 Calma 3 Nordeste 0 -- -- 94
2020-03-25 06:00:00 1.2 0 Calma 4 Oeste 0 -- -- 91
2020-03-25 05:00:00 2.5 0 Calma 5 Oeste 0 -- -- 88
2020-03-25 04:00:00 3.6 2 Oeste 5 Sudoeste 0 -- -- 87
2020-03-25 03:00:00 4 3 Oeste 5 Oeste 0 -- -- 87
2020-03-25 02:00:00 4.5 2 Oeste 8 Oeste 0 -- -- 86
2020-03-25 01:00:00 4.9 4 Oeste 10 Oeste 0 -- -- 87
2020-03-25 00:00:00 5.7 8 Noroeste 12 Noroeste 0 -- -- 83
2020-03-24 23:00:00 5.6 6 Noroeste 9 Noroeste 0 -- -- 82
2020-03-24 22:00:00 6.2 5 Noroeste 12 Noroeste 0 -- -- 81
2020-03-24 21:00:00 8.5 0 Calma 5 Noroeste 0 -- -- 73
2020-03-24 20:00:00 11.4 5 Sur 13 Este 0 -- -- 62
2020-03-24 19:00:00 14.4 8 Sudeste 22 Este 0 -- -- 53
2020-03-24 18:00:00 15.5 12 Este 26 Este 0 -- -- 47
2020-03-24 17:00:00 15.8 11 Este 28 Este 0 -- -- 47
2020-03-24 16:00:00 15.2 19 Este 28 Este 0 -- -- 51
2020-03-24 15:00:00 15.1 15 Este 30 Este 0 -- -- 51
2020-03-24 14:00:00 14.4 18 Este 28 Este 0 -- -- 55
2020-03-24 13:00:00 13.8 19 Este 28 Este 0 -- -- 58
2020-03-24 12:00:00 13.3 18 Este 29 Este 0 -- -- 63
2020-03-24 11:00:00 11.5 14 Este 27 Este 0 -- -- 72
2020-03-24 10:00:00 9.5 14 Este 25 Nordeste 0 -- -- 79
2020-03-24 09:00:00 8 10 Nordeste 15 Nordeste 0 -- -- 86
2020-03-24 08:00:00 6.1 9 Norte 14 Norte 0 -- -- 92
2020-03-24 07:00:00 4.6 6 Nordeste 10 Norte 0 -- -- 94
2020-03-24 06:00:00 4.5 5 Norte -- -- -- -- -- 93
2020-03-24 05:00:00 -- -- -- -- -- -- -- -- --
2020-03-24 04:00:00 -- -- -- -- -- -- -- -- --
2020-03-24 03:00:00 -- -- -- -- -- -- -- -- --
2020-03-24 02:00:00 -- -- -- -- -- -- -- -- --
2020-03-24 01:00:00 -- -- -- -- -- -- -- -- --
2020-03-24 00:00:00 -- -- -- -- -- -- -- -- --
2020-03-23 23:00:00 -- -- -- -- -- -- -- -- --
2020-03-23 22:00:00 -- -- -- -- -- -- -- -- --
2020-03-23 21:00:00 -- -- -- -- -- -- -- -- --
2020-03-23 20:00:00 -- -- -- -- -- -- -- -- --
2020-03-23 19:00:00 -- -- -- -- -- -- -- -- --
2020-03-23 18:00:00 14.5 11 Este 19 Este 0 -- -- 51
2020-03-23 17:00:00 13.3 16 Este 25 Este 0 -- -- 59
2020-03-23 16:00:00 13.5 16 Este 24 Este 0 -- -- 55
2020-03-23 15:00:00 13.5 17 Nordeste 27 Este 0 -- -- 58
2020-03-23 14:00:00 13 17 Este 25 Nordeste 0 -- -- 59
2020-03-23 13:00:00 13.4 14 Este 26 Este 0 -- -- 60
2020-03-23 12:00:00 11.7 18 Este 30 Este 0 -- -- 69
2020-03-23 11:00:00 10.7 12 Nordeste 20 Este 0 -- -- 71
2020-03-23 10:00:00 8.9 11 Nordeste 19 Nordeste 0 -- -- 76
2020-03-23 09:00:00 7.4 13 Nordeste 18 Nordeste 0 -- -- 78
2020-03-23 08:00:00 6.5 9 Nordeste -- -- -- -- -- 78
2020-03-23 07:00:00 -- -- -- -- -- -- -- -- --
2020-03-23 06:00:00 -- -- -- -- -- -- -- -- --
2020-03-23 05:00:00 -- -- -- -- -- -- -- -- --
2020-03-23 04:00:00 -- -- -- -- -- -- -- -- --
2020-03-23 03:00:00 -- -- -- -- -- -- -- -- --
2020-03-23 02:00:00 -- -- -- -- -- -- -- -- --
2020-03-23 01:00:00 -- -- -- -- -- -- -- -- --
2020-03-23 00:00:00 -- -- -- -- -- -- -- -- --
2020-03-22 23:00:00 -- -- -- -- -- -- -- -- --
2020-03-22 22:00:00 -- -- -- -- -- -- -- -- --
2020-03-22 21:00:00 -- -- -- -- -- -- -- -- --
2020-03-22 20:00:00 -- -- -- -- -- -- -- -- --
2020-03-22 19:00:00 -- -- -- -- -- -- -- -- --
2020-03-22 18:00:00 12 8 Noroeste 39 Nordeste 0 -- -- 64
2020-03-22 17:00:00 16 9 Sudeste 22 Sudeste 0 -- -- 48
2020-03-22 16:00:00 15.9 10 Sudeste 21 Este 0 -- -- 56
2020-03-22 15:00:00 15.5 12 Sudeste 28 Este 0 -- -- 53
2020-03-22 14:00:00 14.7 11 Este 21 Este 0 -- -- 63
2020-03-22 13:00:00 13.7 9 Norte 22 Este 0 -- -- 67
2020-03-22 12:00:00 11.9 5 Oeste 15 Sudeste 0 -- -- 81
2020-03-22 11:00:00 11.3 8 Sudeste 14 Sudeste 0 -- -- 81
2020-03-22 10:00:00 10.1 6 Nordeste 14 Nordeste 0 -- -- 86
2020-03-22 09:00:00 7.6 9 Norte -- -- -- -- -- 95
2020-03-22 08:00:00 -- -- -- -- -- -- -- -- --
2020-03-22 07:00:00 -- -- -- -- -- -- -- -- --
2020-03-22 06:00:00 -- -- -- -- -- -- -- -- --
2020-03-22 05:00:00 -- -- -- -- -- -- -- -- --
2020-03-22 04:00:00 -- -- -- -- -- -- -- -- --
2020-03-22 03:00:00 -- -- -- -- -- -- -- -- --
2020-03-22 02:00:00 -- -- -- -- -- -- -- -- --
2020-03-22 01:00:00 -- -- -- -- -- -- -- -- --
2020-03-22 00:00:00 -- -- -- -- -- -- -- -- --
2020-03-21 23:00:00 -- -- -- -- -- -- -- -- --
2020-03-21 22:00:00 -- -- -- -- -- -- -- -- --
2020-03-21 21:00:00 -- -- -- -- -- -- -- -- --
2020-03-21 20:00:00 -- -- -- -- -- -- -- -- --
2020-03-21 19:00:00 -- -- -- -- -- -- -- -- --
2020-03-21 18:00:00 11.5 0 Calma 7 Sur 0 -- -- 74
2020-03-21 17:00:00 11.4 4 Sur 9 Sur 0 -- -- 74
2020-03-21 16:00:00 11.6 3 Sur 7 Sudeste 0 -- -- 72
2020-03-21 15:00:00 11.7 4 Sudeste 10 Sudeste 0 -- -- 71
2020-03-21 14:00:00 11.6 5 Sudeste 18 Sudeste 0 -- -- 72
2020-03-21 13:00:00 10.9 7 Sudeste 17 Sudeste 0 -- -- 77
2020-03-21 12:00:00 10 9 Este 18 Este 0 -- -- 83
2020-03-21 11:00:00 -- -- -- -- -- -- -- -- --
2020-03-21 10:00:00 -- -- -- -- -- -- -- -- --
2020-03-21 09:00:00 -- -- -- -- -- -- -- -- --
2020-03-21 08:00:00 -- -- -- -- -- -- -- -- --
2020-03-21 07:00:00 -- -- -- -- -- -- -- -- --
2020-03-21 06:00:00 -- -- -- -- -- -- -- -- --
2020-03-21 05:00:00 -- -- -- -- -- -- -- -- --
2020-03-21 04:00:00 -- -- -- -- -- -- -- -- --
2020-03-21 03:00:00 -- -- -- -- -- -- -- -- --
2020-03-21 02:00:00 -- -- -- -- -- -- -- -- --
2020-03-21 01:00:00 -- -- -- -- -- -- -- -- --
2020-03-21 00:00:00 -- -- -- -- -- -- -- -- --
2020-03-20 23:00:00 -- -- -- -- -- -- -- -- --
2020-03-20 22:00:00 -- -- -- -- -- -- -- -- --
2020-03-20 21:00:00 -- -- -- -- -- -- -- -- --
2020-03-20 20:00:00 -- -- -- -- -- -- -- -- --
2020-03-20 19:00:00 -- -- -- -- -- -- -- -- --
2020-03-20 18:00:00 -- -- -- -- -- -- -- -- --
2020-03-20 17:00:00 -- -- -- -- -- -- -- -- --
2020-03-20 16:00:00 -- -- -- -- -- -- -- -- --
2020-03-20 15:00:00 -- -- -- -- -- -- -- -- --
2020-03-20 14:00:00 -- -- -- -- -- -- -- -- --
2020-03-20 13:00:00 -- -- -- -- -- -- -- -- --
2020-03-20 12:00:00 -- -- -- -- -- -- -- -- --
2020-03-20 11:00:00 -- -- -- -- -- -- -- -- --
2020-03-20 10:00:00 -- -- -- -- -- -- -- -- --
2020-03-20 09:00:00 -- -- -- -- -- -- -- -- --
2020-03-20 08:00:00 -- -- -- -- -- -- -- -- --
2020-03-20 07:00:00 -- -- -- -- -- -- -- -- --
2020-03-20 06:00:00 -- -- -- -- -- -- -- -- --
2020-03-20 05:00:00 -- -- -- -- -- -- -- -- --
2020-03-20 04:00:00 -- -- -- -- -- -- -- -- --
2020-03-20 03:00:00 -- -- -- -- -- -- -- -- --
2020-03-20 02:00:00 -- -- -- -- -- -- -- -- --
2020-03-20 01:00:00 -- -- -- -- -- -- -- -- --
2020-03-20 00:00:00 -- -- -- -- -- -- -- -- --
2020-03-19 23:00:00 -- -- -- -- -- -- -- -- --
2020-03-19 22:00:00 9.7 0 Calma 5 Noroeste 0 -- -- 85
2020-03-19 21:00:00 10.8 2 Este 6 Sudeste 0 -- -- 79
2020-03-19 20:00:00 12.1 4 Nordeste 10 Este 0 -- -- 75
2020-03-19 19:00:00 13.4 8 Este 13 Este 0 -- -- 71
2020-03-19 18:00:00 14.8 9 Este 17 Sudeste 0 -- -- 63
2020-03-19 17:00:00 15.4 10 Este 15 Este 0 -- -- 63
2020-03-19 16:00:00 15.6 9 Este 17 Sudeste 0 -- -- 64
2020-03-19 15:00:00 16 10 Sudeste 16 Sudeste 0 -- -- 65
2020-03-19 14:00:00 16 9 Sudeste 15 Sudeste 0 -- -- 64
2020-03-19 13:00:00 15.6 8 Este 15 Nordeste 0 -- -- 65
2020-03-19 12:00:00 13.9 9 Nordeste 17 Este 0 -- -- 68
2020-03-19 11:00:00 12.6 6 Nordeste 14 Este 0 -- -- 74
2020-03-19 10:00:00 10.6 5 Nordeste 10 Norte 0 -- -- 82
2020-03-19 09:00:00 7.6 8 Nordeste 10 Nordeste 0 -- -- 90
2020-03-19 08:00:00 5.8 3 Nordeste 6 Norte 0 -- -- 90
2020-03-19 07:00:00 5.9 0 Calma 5 Norte 0 -- -- 90
2020-03-19 06:00:00 5.9 3 Norte 9 Norte 0 -- -- 90
2020-03-19 05:00:00 6.1 4 Noroeste 5 Noroeste 0 -- -- 90
2020-03-19 04:00:00 6.2 3 Noroeste 8 Noroeste 0 -- -- 88
2020-03-19 03:00:00 6.6 4 Noroeste 7 Oeste 0 -- -- 86
2020-03-19 02:00:00 6.7 0 Calma 5 Noroeste 0 -- -- 88
2020-03-19 01:00:00 7.7 3 Noroeste 6 Noroeste 0 -- -- 85
2020-03-19 00:00:00 8.2 3 Noroeste 8 Noroeste 0 -- -- 85
2020-03-18 23:00:00 8.7 5 Noroeste 8 Noroeste 0 -- -- 83
2020-03-18 22:00:00 10.3 2 Noroeste 5 Noroeste 0 -- -- 79
2020-03-18 21:00:00 12 5 Noroeste 6 Noroeste 0 -- -- 74
2020-03-18 20:00:00 14.1 5 Sudeste 9 Sudeste 0 -- -- 67
2020-03-18 19:00:00 16.4 8 Sudeste 13 Este 0 -- -- 61
2020-03-18 18:00:00 17.4 8 Este 12 Este 0 -- -- 52
2020-03-18 17:00:00 17.7 6 Este 16 Este 0 -- -- 52
2020-03-18 16:00:00 17.4 8 Este 19 Este 0 -- -- 54
2020-03-18 15:00:00 17.1 8 Nordeste 17 Nordeste 0 -- -- 55
2020-03-18 14:00:00 16.6 7 Este 14 Este 0 -- -- 55
2020-03-18 13:00:00 15.1 7 Nordeste 17 Norte 0 -- -- 63
2020-03-18 12:00:00 13.7 12 Nordeste 19 Nordeste 0 -- -- 68
2020-03-18 11:00:00 11.8 8 Nordeste 15 Nordeste 0 -- -- 74
2020-03-18 10:00:00 10.1 9 Nordeste 15 Nordeste 0 -- -- 81
2020-03-18 09:00:00 8.4 5 Norte 8 Nordeste 0 -- -- 89
2020-03-18 08:00:00 7.7 5 Nordeste 9 Nordeste 0 -- -- 90
2020-03-18 07:00:00 7.4 7 Nordeste 10 Nordeste 0 -- -- 90
2020-03-18 06:00:00 7.5 5 Nordeste 15 Norte 0 -- -- 89
2020-03-18 05:00:00 7.2 9 Nordeste 14 Norte 0 -- -- 90
2020-03-18 04:00:00 7.3 7 Nordeste 15 Nordeste 0 -- -- 90
2020-03-18 03:00:00 7.4 6 Nordeste 15 Norte 0 -- -- 87
2020-03-18 02:00:00 7.5 7 Norte 13 Norte 0 -- -- 89
2020-03-18 01:00:00 7.6 6 Norte 16 Nordeste 0 -- -- 88
2020-03-18 00:00:00 7.6 8 Norte 14 Norte 0 -- -- 87
2020-03-17 23:00:00 8.3 6 Norte 14 Nordeste 0 -- -- 83
2020-03-17 22:00:00 8.6 9 Norte 15 Nordeste 0 -- -- 86
2020-03-17 21:00:00 9.2 6 Norte 9 Este 0 -- -- 80
2020-03-17 20:00:00 10.5 7 Nordeste 22 Este 0 -- -- 76
2020-03-17 19:00:00 12.3 18 Nordeste 29 Este 0 -- -- 69
2020-03-17 18:00:00 13.3 15 Este 28 Nordeste 0 -- -- 67
2020-03-17 17:00:00 13.1 21 Este 35 Este 0 -- -- 66
2020-03-17 16:00:00 12.6 22 Este 35 Este 0 -- -- 67
2020-03-17 15:00:00 13.1 26 Este 38 Este 0 -- -- 66
2020-03-17 14:00:00 13.5 22 Este 40 Este 0 -- -- 64
2020-03-17 13:00:00 14.4 28 Este 42 Este 0 -- -- 58
2020-03-17 12:00:00 13.4 30 Este 46 Este 0 -- -- 62
2020-03-17 11:00:00 11.9 31 Este 50 Este 0 -- -- 63
2020-03-17 10:00:00 9.5 24 Este 38 Este 0 -- -- 67
2020-03-17 09:00:00 7.8 19 Nordeste 31 Nordeste 0 -- -- 69
2020-03-17 08:00:00 7.8 19 Nordeste 34 Nordeste 0 -- -- 64
2020-03-17 07:00:00 7.2 18 Nordeste 28 Nordeste 0 -- -- 64
2020-03-17 06:00:00 6.7 15 Nordeste 21 Nordeste 0 -- -- 64
2020-03-17 05:00:00 6.5 10 Nordeste 23 Nordeste 0 -- -- 63
2020-03-17 04:00:00 6.3 15 Nordeste 32 Norte 0 -- -- 61
2020-03-17 03:00:00 6.2 22 Norte 40 Norte 0 -- -- 59
2020-03-17 02:00:00 6.4 23 Norte 42 Norte 0 -- -- 58
2020-03-17 01:00:00 6.5 27 Norte 42 Nordeste 0 -- -- 56
2020-03-17 00:00:00 6.7 26 Norte 40 Nordeste 0 -- -- 54
2020-03-16 23:00:00 6.7 26 Norte 44 Norte 0 -- -- 54
2020-03-16 22:00:00 6.5 25 Norte 44 Norte 0 -- -- 52
2020-03-16 21:00:00 6.2 25 Norte 50 Norte 0 -- -- 52
2020-03-16 20:00:00 7.1 31 Norte 48 Norte 0 -- -- 51
2020-03-16 19:00:00 8.4 33 Norte 56 Norte 0 -- -- 51
2020-03-16 18:00:00 9.6 31 Norte 53 Norte 0 -- -- 47
2020-03-16 17:00:00 10.3 35 Norte 56 Nordeste 0 -- -- 46
2020-03-16 16:00:00 9.4 36 Norte 55 Nordeste 0 -- -- 45
2020-03-16 15:00:00 9.5 38 Norte 62 Norte 0 -- -- 46
2020-03-16 14:00:00 9.3 36 Norte 57 Nordeste 0 -- -- 46
2020-03-16 13:00:00 8.1 31 Norte 57 Norte 0 -- -- 51
2020-03-16 12:00:00 7.8 36 Nordeste 54 Nordeste 0 -- -- 54
2020-03-16 11:00:00 6.9 33 Norte 49 Norte 0 -- -- 59
2020-03-16 10:00:00 6.3 27 Norte 55 Norte 0.2 -- -- 61
2020-03-16 09:00:00 3.9 22 Norte 36 Noroeste 0 -- -- 67
2020-03-16 08:00:00 3.3 12 Norte 30 Norte 0 -- -- 71
2020-03-16 07:00:00 3.5 17 Norte 32 Noroeste 0 -- -- 71
2020-03-16 06:00:00 3.6 21 Noroeste 33 Noroeste 0 -- -- 71
2020-03-16 05:00:00 3.5 13 Norte 26 Norte 0 -- -- 75
2020-03-16 04:00:00 2.9 14 Norte 24 Norte 0 -- -- 81
2020-03-16 03:00:00 2.7 14 Norte 22 Norte 0 -- -- 83
2020-03-16 02:00:00 2.9 9 Norte 24 Noroeste 0 -- -- 79
2020-03-16 01:00:00 2.8 9 Norte 15 Noroeste 0 -- -- 79
2020-03-16 00:00:00 2.2 5 Noroeste 17 Norte 0 -- -- 82
2020-03-15 23:00:00 2.4 8 Norte 33 Norte 0 -- -- 88
2020-03-15 22:00:00 1.9 23 Norte 42 Norte 1.4 -- -- 93
2020-03-15 21:00:00 3.1 21 Noroeste 44 Noroeste 0.8 -- -- 85
2020-03-15 20:00:00 6.5 17 Noroeste 36 Noroeste 0 -- -- 63
2020-03-15 19:00:00 10.4 16 Oeste 44 Sudoeste 0 -- -- 62
2020-03-15 18:00:00 14 20 Sudoeste 40 Oeste 0 -- -- 41
2020-03-15 17:00:00 14.8 24 Sudoeste 40 Sudoeste 0 -- -- 40
2020-03-15 16:00:00 14.4 24 Sudoeste 41 Sudoeste 0 -- -- 42
2020-03-15 15:00:00 15.2 21 Sudoeste 40 Sudoeste 0 -- -- 35
2020-03-15 14:00:00 17 22 Sudoeste 41 Sudoeste 0 -- -- 37
2020-03-15 13:00:00 17.2 22 Sudoeste 41 Sudoeste 0 -- -- 30
2020-03-15 12:00:00 13.8 5 Sudeste 13 Este 0 -- -- 55
2020-03-15 11:00:00 9 4 Este 8 Este 0 -- -- 66
2020-03-15 10:00:00 4.7 0 Calma 4 Norte 0 -- -- 80
2020-03-15 09:00:00 1.2 0 Calma 3 Sudoeste 0 -- -- 88
2020-03-15 08:00:00 -1.6 -- -- -- -- 0 -- -- 93
2020-03-15 07:00:00 -- -- -- -- -- -- -- -- --
2020-03-15 06:00:00 -0.5 2 Oeste 4 Sudoeste 0 -- -- 91
2020-03-15 05:00:00 0.4 0 Calma 2 Noroeste 0 -- -- 88
2020-03-15 04:00:00 1 0 Calma 3 Noroeste 0 -- -- 88
2020-03-15 03:00:00 1.5 0 Calma 3 Oeste 0 -- -- 86
2020-03-15 02:00:00 2.7 0 Calma 3 Noroeste 0 -- -- 84
2020-03-15 01:00:00 3 0 Calma 3 Noroeste 0 -- -- 83
2020-03-15 00:00:00 3.2 0 Calma 6 Noroeste 0 -- -- 81
2020-03-14 23:00:00 4.1 5 Noroeste 6 Noroeste 0 -- -- 78
2020-03-14 22:00:00 6.4 4 Noroeste 6 Noroeste 0 -- -- 69
2020-03-14 21:00:00 8.5 4 Noroeste 5 Noroeste 0 -- -- 63
2020-03-14 20:00:00 11.3 3 Sur 12 Sudeste 0 -- -- 53
2020-03-14 19:00:00 15.2 8 Sudeste 14 Sudeste 0 -- -- 46
2020-03-14 18:00:00 17.2 9 Sudeste 19 Este 0 -- -- 38
2020-03-14 17:00:00 17.4 10 Sudeste 18 Este 0 -- -- 36
2020-03-14 16:00:00 16.6 10 Este 18 Sudeste 0 -- -- 38
2020-03-14 15:00:00 15.8 8 Sudeste 18 Sudeste 0 -- -- 38
2020-03-14 14:00:00 14.6 6 Este 18 Sudeste 0 -- -- 48
2020-03-14 13:00:00 12.7 7 Este 14 Este 0 -- -- 55
2020-03-14 12:00:00 10.8 4 Este 11 Este 0 -- -- 59
2020-03-14 11:00:00 8.7 3 Sudeste 8 Este 0 -- -- 71
2020-03-14 10:00:00 4.7 2 Sudeste 4 Este 0 -- -- 89
2020-03-14 09:00:00 1 0 Calma 2 Noroeste 0 -- -- 94
2020-03-14 08:00:00 -1.8 0 Calma 2 Sudoeste 0 -- -- 95
2020-03-14 07:00:00 -1.5 0 Calma 3 Oeste 0 -- -- 94
2020-03-14 06:00:00 -1 0 Calma 2 Noroeste 0 -- -- 94
2020-03-14 05:00:00 -0.6 0 Calma 3 Noroeste 0 -- -- 93
2020-03-14 04:00:00 -0.1 0 Calma 2 Oeste 0 -- -- 93
2020-03-14 03:00:00 0.8 0 Calma 4 Noroeste 0 -- -- 93
2020-03-14 02:00:00 1.6 0 Calma 6 Oeste 0 -- -- 91
2020-03-14 01:00:00 2.5 3 Noroeste 5 Noroeste 0 -- -- 91
2020-03-14 00:00:00 3.9 2 Noroeste 5 Noroeste 0 -- -- 88
2020-03-13 23:00:00 5.5 3 Noroeste 6 Noroeste 0 -- -- 87
2020-03-13 22:00:00 7.4 2 Sur 6 Este 0 -- -- 81
2020-03-13 21:00:00 8.5 4 Este 9 Sudeste 0 -- -- 77
2020-03-13 20:00:00 10.6 6 Sudeste 19 Este 0 -- -- 72
2020-03-13 19:00:00 -- -- -- -- -- -- -- -- --
2020-03-13 18:00:00 -- -- -- -- -- -- -- -- --
2020-03-13 17:00:00 -- -- -- -- -- -- -- -- --
2020-03-13 16:00:00 -- -- -- -- -- -- -- -- --
2020-03-13 15:00:00 -- -- -- -- -- -- -- -- --
2020-03-13 14:00:00 -- -- -- -- -- -- -- -- --
2020-03-13 13:00:00 -- -- -- -- -- -- -- -- --
2020-03-13 12:00:00 -- -- -- -- -- -- -- -- --
2020-03-13 11:00:00 -- -- -- -- -- -- -- -- --
2020-03-13 10:00:00 -- -- -- -- -- -- -- -- --
2020-03-13 09:00:00 -- -- -- -- -- -- -- -- --
2020-03-13 08:00:00 -- -- -- -- -- -- -- -- --
2020-03-13 07:00:00 -- -- -- -- -- -- -- -- --
2020-03-13 06:00:00 -- -- -- -- -- -- -- -- --
2020-03-13 05:00:00 -- -- -- -- -- -- -- -- --
2020-03-13 04:00:00 -- -- -- -- -- -- -- -- --
2020-03-13 03:00:00 -- -- -- -- -- -- -- -- --
2020-03-13 02:00:00 -- -- -- -- -- -- -- -- --
2020-03-13 01:00:00 -- -- -- -- -- -- -- -- --
2020-03-13 00:00:00 -- -- -- -- -- -- -- -- --
2020-03-12 23:00:00 -- -- -- -- -- -- -- -- --
2020-03-12 22:00:00 11 11 Sudeste 26 Nordeste 0 -- -- 76
2020-03-12 21:00:00 12.3 12 Este 22 Este 0 -- -- 76
2020-03-12 20:00:00 14.5 10 Este 19 Este 0 -- -- 74
2020-03-12 19:00:00 16.9 6 Este 14 Sudeste 0 -- -- 61
2020-03-12 18:00:00 18.2 10 Este 19 Sudeste 0 -- -- 57
2020-03-12 17:00:00 18.9 14 Sudeste 21 Este 0 -- -- 51
2020-03-12 16:00:00 18.8 12 Sudeste 21 Sudeste 0 -- -- 51
2020-03-12 15:00:00 19.9 11 Sudeste 18 Sudeste 0 -- -- 48
2020-03-12 14:00:00 20.2 9 Sudeste 18 Este 0 -- -- 46
2020-03-12 13:00:00 18 4 Sudeste 10 Este 0 -- -- 51
2020-03-12 12:00:00 15.5 3 Sudeste 6 Este 0 -- -- 59
2020-03-12 11:00:00 12.6 3 Sur 5 Sudeste 0 -- -- 74
2020-03-12 10:00:00 10.2 3 Sur 4 Sur 0 -- -- 85
2020-03-12 09:00:00 5.9 0 Calma 4 Sudoeste 0 -- -- 92
2020-03-12 08:00:00 5.3 0 Calma 3 Sur 0 -- -- 88
2020-03-12 07:00:00 6.2 2 Noroeste 3 Sudeste 0 -- -- 88
2020-03-12 06:00:00 6.5 0 Calma 3 Sudeste 0 -- -- 87
2020-03-12 05:00:00 6.5 2 Sudoeste 5 Noroeste 0 -- -- 87
2020-03-12 04:00:00 6.4 4 Noroeste 5 Noroeste 0 -- -- 84
2020-03-12 03:00:00 6.7 3 Norte 4 Noroeste 0 -- -- 84
2020-03-12 02:00:00 7 0 Calma 2 Noroeste 0 -- -- 82
2020-03-12 01:00:00 7.5 0 Calma 4 Nordeste 0 -- -- 81
2020-03-12 00:00:00 8.9 3 Nordeste 4 Nordeste 0 -- -- 74
2020-03-11 23:00:00 10.6 0 Calma -- -- -- -- -- 69
2020-03-11 22:00:00 13.2 0 Calma 9 Este 0 -- -- 59
2020-03-11 21:00:00 15.7 5 Oeste 16 Sudoeste 0 -- -- 50
2020-03-11 20:00:00 16.5 13 Sudoeste 21 Sudoeste 0 -- -- 51
2020-03-11 19:00:00 19.6 16 Sudoeste 31 Sudoeste 0 -- -- 42
2020-03-11 18:00:00 21.8 19 Sudoeste 35 Sudoeste 0 -- -- 34
2020-03-11 17:00:00 23.1 21 Sudoeste 37 Sudoeste 0 -- -- 32
2020-03-11 16:00:00 23.2 26 Sudoeste 38 Sudoeste 0 -- -- 30
2020-03-11 15:00:00 23 26 Sudoeste 36 Sudoeste 0 -- -- 29
2020-03-11 14:00:00 21.1 12 Sur 19 Sur 0 -- -- 37
2020-03-11 13:00:00 17.1 7 Este 15 Este 0 -- -- 50
2020-03-11 12:00:00 14.7 5 Este 12 Este 0 -- -- 55
2020-03-11 11:00:00 12.2 4 Este 6 Sudeste 0 -- -- 60
2020-03-11 10:00:00 8.4 0 Calma 4 Sudeste 0 -- -- 69
2020-03-11 09:00:00 3.6 0 Calma 2 Noroeste 0 -- -- 83
2020-03-11 08:00:00 0.6 0 Calma 2 Noroeste 0 -- -- 88
2020-03-11 07:00:00 0.5 0 Calma 2 Norte 0 -- -- 88
2020-03-11 06:00:00 1.3 0 Calma 5 Sudoeste 0 -- -- 86
2020-03-11 05:00:00 1.5 0 Calma 3 Oeste 0 -- -- 84
2020-03-11 04:00:00 2.5 0 Calma 6 Sur 0 -- -- 80
2020-03-11 03:00:00 3.8 0 Calma 4 Norte 0 -- -- 76
2020-03-11 02:00:00 4.9 0 Calma 6 Noroeste 0 -- -- 70
2020-03-11 01:00:00 6.4 0 Calma 4 Este 0 -- -- 66
2020-03-11 00:00:00 8 2 Sur 8 Sudoeste 0 -- -- 61
2020-03-10 23:00:00 11.9 3 Sudoeste 20 Oeste 0 -- -- 47
2020-03-10 22:00:00 12.2 2 Sudeste 14 Oeste 0 -- -- 47
2020-03-10 21:00:00 12.6 3 Oeste 13 Oeste 0 -- -- 44
2020-03-10 20:00:00 15.5 6 Sudoeste 20 Oeste 0 -- -- 36
2020-03-10 19:00:00 19 14 Oeste 30 Oeste 0 -- -- 27
2020-03-10 18:00:00 21.1 13 Sudoeste 30 Sudoeste 0 -- -- 22
2020-03-10 17:00:00 21.7 21 Sudoeste 32 Sudoeste 0 -- -- 21
2020-03-10 16:00:00 21.9 16 Sudoeste 28 Oeste 0 -- -- 16
2020-03-10 15:00:00 21.6 14 Sudoeste 22 Sudoeste 0 -- -- 21
2020-03-10 14:00:00 18.6 8 Este 15 Este 0 -- -- 45
2020-03-10 13:00:00 16.6 4 Nordeste 13 Este 0 -- -- 49
2020-03-10 12:00:00 13.6 5 Sudeste 9 Sudeste 0 -- -- 58
2020-03-10 11:00:00 10.8 5 Este 8 Este 0 -- -- 64
2020-03-10 10:00:00 7.6 2 Este 4 Nordeste 0 -- -- 81
2020-03-10 09:00:00 3.5 2 Norte 3 Norte 0 -- -- 93
2020-03-10 08:00:00 1.9 2 Noroeste 4 Noroeste 0 -- -- 92
2020-03-10 07:00:00 2 0 Calma 3 Sudoeste 0 -- -- 90
2020-03-10 06:00:00 1.9 3 Noroeste 3 Noroeste 0 -- -- 91
2020-03-10 05:00:00 2.4 2 Noroeste 3 Noroeste 0 -- -- 89
2020-03-10 04:00:00 2.8 0 Calma 5 Sudoeste 0 -- -- 88
2020-03-10 03:00:00 3.3 0 Calma 4 Sudeste 0 -- -- 87
2020-03-10 02:00:00 3.2 0 Calma 8 Sur 0 -- -- 86
2020-03-10 01:00:00 4.8 0 Calma -- -- -- -- -- 78
2020-03-10 00:00:00 -- -- -- -- -- -- -- -- --
2020-03-09 23:00:00 -- -- -- -- -- -- -- -- --
2020-03-09 22:00:00 8.3 3 Norte 10 Oeste 0 -- -- 64
2020-03-09 21:00:00 10.6 5 Oeste 16 Noroeste 0 -- -- 52
2020-03-09 20:00:00 11.5 4 Norte 14 Norte 0 -- -- 50
2020-03-09 19:00:00 14.3 8 Norte 18 Norte 0 -- -- 44
2020-03-09 18:00:00 16.9 10 Norte 24 Norte 0 -- -- 37
2020-03-09 17:00:00 16.6 18 Norte 28 Norte 0 -- -- 33
2020-03-09 16:00:00 16.6 18 Norte 31 Norte 0 -- -- 28
2020-03-09 15:00:00 16 17 Norte 35 Noroeste 0 -- -- 28
2020-03-09 14:00:00 14.5 6 Sudeste 10 Este 0 -- -- 40
2020-03-09 13:00:00 12.3 3 Sur 10 Este 0 -- -- 46
2020-03-09 12:00:00 11 3 Sudeste 10 Sudoeste 0 -- -- 55
2020-03-09 11:00:00 9.1 3 Sudeste 7 Sudoeste 0 -- -- 63
2020-03-09 10:00:00 5.8 2 Este 5 Norte 0 -- -- 80
2020-03-09 09:00:00 0.4 0 Calma 6 Oeste 0 -- -- 93
2020-03-09 08:00:00 -1.2 3 Sudeste 10 Este 0 -- -- 91
2020-03-09 07:00:00 -0.4 0 Calma 6 Sur 0 -- -- 88
2020-03-09 06:00:00 0.7 5 Sur 12 Sudeste 0 -- -- 84
2020-03-09 05:00:00 1.3 3 Sur 9 Oeste 0 -- -- 84
2020-03-09 04:00:00 2 3 Norte 10 Oeste 0 -- -- 80
2020-03-09 03:00:00 4.4 8 Oeste 11 Oeste 0 -- -- 71
2020-03-09 02:00:00 3.9 2 Sudoeste 11 Sur 0 -- -- 74
2020-03-09 01:00:00 5.2 8 Noroeste 20 Noroeste 0 -- -- 69
2020-03-09 00:00:00 7.7 12 Oeste 21 Oeste 0 -- -- 61